createdAt,value
2018-07-26T00:01:19.283Z,7.03
2018-07-26T00:03:47.486Z,6.83
2018-07-26T00:06:15.699Z,6.60
2018-07-26T00:08:43.885Z,6.92
2018-07-26T00:11:12.278Z,6.53
2018-07-26T00:13:40.444Z,7.23
2018-07-26T00:16:08.729Z,8.00
2018-07-26T00:18:36.920Z,7.27
2018-07-26T00:21:05.172Z,6.67
2018-07-26T00:23:33.380Z,6.80
2018-07-26T00:26:01.644Z,7.35
2018-07-26T00:28:29.627Z,7.28
2018-07-26T00:30:57.877Z,6.97
2018-07-26T00:33:26.065Z,7.30
2018-07-26T00:35:54.368Z,7.73
2018-07-26T00:38:22.596Z,7.93
2018-07-26T00:40:50.876Z,6.85
2018-07-26T00:43:19.068Z,7.90
2018-07-26T00:45:47.306Z,7.37
2018-07-26T00:48:15.531Z,8.27
2018-07-26T00:50:43.756Z,7.67
2018-07-26T00:53:12.194Z,7.15
2018-07-26T00:55:40.463Z,7.07
2018-07-26T00:58:12.591Z,9.60
2018-07-26T01:00:40.816Z,8.03
2018-07-26T01:03:09.079Z,7.67
2018-07-26T01:05:37.427Z,7.47
2018-07-26T01:08:05.822Z,7.87
2018-07-26T01:10:34.083Z,9.20
2018-07-26T01:13:12.527Z,8.27
2018-07-26T01:15:40.749Z,9.73
2018-07-26T01:18:08.974Z,8.87
2018-07-26T01:20:37.174Z,9.07
2018-07-26T01:23:05.372Z,8.60
2018-07-26T01:25:33.593Z,9.50
2018-07-26T01:28:01.797Z,7.77
2018-07-26T01:30:30.980Z,9.10
2018-07-26T01:32:59.189Z,8.00
2018-07-26T01:35:27.419Z,8.63
2018-07-26T01:37:56.055Z,8.35
2018-07-26T01:40:24.253Z,7.73
2018-07-26T01:43:07.580Z,9.03
2018-07-26T01:45:35.753Z,8.58
2018-07-26T01:48:03.988Z,9.55
2018-07-26T01:50:32.943Z,8.80
2018-07-26T01:53:01.320Z,8.20
2018-07-26T01:55:29.347Z,8.50
2018-07-26T01:58:00.719Z,7.92
2018-07-26T02:00:28.926Z,8.48
2018-07-26T02:02:57.174Z,8.58
2018-07-26T02:05:25.447Z,9.73
2018-07-26T02:07:53.638Z,8.53
2018-07-26T02:10:22.822Z,9.30
2018-07-26T02:12:54.990Z,8.63
2018-07-26T02:15:23.291Z,8.30
2018-07-26T02:20:26.079Z,8.33
2018-07-26T02:22:54.315Z,8.30
2018-07-26T02:25:22.579Z,9.97
2018-07-26T02:27:54.272Z,9.40
2018-07-26T02:30:22.444Z,7.83
2018-07-26T02:32:50.696Z,7.43
2018-07-26T02:35:19.132Z,8.40
2018-07-26T02:37:47.323Z,8.57
2018-07-26T02:40:15.580Z,8.57
2018-07-26T02:42:44.265Z,7.87
2018-07-26T02:45:12.540Z,9.07
2018-07-26T02:47:40.771Z,9.13
2018-07-26T02:50:08.988Z,8.80
2018-07-26T02:52:37.370Z,8.17
2018-07-26T02:55:05.594Z,8.57
2018-07-26T02:57:33.818Z,9.45
2018-07-26T03:00:05.478Z,9.37
2018-07-26T03:02:33.957Z,9.53
2018-07-26T03:05:02.180Z,10.47
2018-07-26T03:07:30.339Z,9.65
2018-07-26T03:09:59.019Z,9.40
2018-07-26T03:12:27.240Z,10.20
2018-07-26T03:14:55.439Z,10.20
2018-07-26T03:17:23.675Z,10.00
2018-07-26T03:19:51.889Z,11.03
2018-07-26T03:22:19.929Z,10.10
2018-07-26T03:24:48.125Z,9.87
2018-07-26T03:27:16.329Z,10.10
2018-07-26T03:29:44.706Z,9.43
2018-07-26T03:32:12.912Z,8.90
2018-07-26T03:34:41.114Z,10.10
2018-07-26T03:37:09.418Z,10.63
2018-07-26T03:39:37.613Z,10.30
2018-07-26T03:42:06.069Z,10.82
2018-07-26T03:44:34.424Z,10.83
2018-07-26T03:47:02.672Z,8.90
2018-07-26T03:49:30.910Z,9.20
2018-07-26T03:51:59.141Z,9.63
2018-07-26T03:54:27.405Z,9.33
2018-07-26T03:56:55.836Z,9.27
2018-07-26T03:59:27.459Z,9.13
2018-07-26T04:01:56.067Z,10.20
2018-07-26T04:04:24.273Z,10.30
2018-07-26T04:06:52.520Z,10.60
2018-07-26T04:09:20.693Z,10.53
2018-07-26T04:11:48.891Z,9.70
2018-07-26T04:14:17.131Z,10.05
2018-07-26T04:16:45.349Z,10.70
2018-07-26T04:19:13.579Z,11.33
2018-07-26T04:21:41.867Z,11.43
2018-07-26T04:24:10.169Z,11.13
2018-07-26T04:26:38.439Z,10.40
2018-07-26T04:29:06.751Z,11.13
2018-07-26T04:31:35.105Z,12.17
2018-07-26T04:34:06.235Z,10.72
2018-07-26T04:36:34.474Z,10.47
2018-07-26T04:39:02.651Z,10.25
2018-07-26T04:41:31.163Z,9.33
2018-07-26T04:43:59.385Z,8.30
2018-07-26T04:46:27.579Z,9.73
2018-07-26T04:48:55.796Z,9.80
2018-07-26T04:51:24.102Z,10.07
2018-07-26T04:53:52.379Z,10.87
2018-07-26T04:56:20.585Z,10.53
2018-07-26T04:58:48.896Z,9.50
2018-07-26T05:01:17.164Z,9.13
2018-07-26T05:03:45.335Z,8.90
2018-07-26T05:06:13.559Z,9.03
2018-07-26T05:08:41.803Z,9.37
2018-07-26T05:11:10.085Z,8.50
2018-07-26T05:13:38.284Z,7.63
2018-07-26T05:16:06.607Z,9.70
2018-07-26T05:18:34.907Z,8.60
2018-07-26T05:21:03.170Z,9.07
2018-07-26T05:23:31.353Z,8.10
2018-07-26T05:26:00.512Z,7.77
2018-07-26T05:28:30.016Z,8.88
2018-07-26T05:31:03.440Z,9.80
2018-07-26T05:33:31.703Z,7.77
2018-07-26T05:36:00.320Z,8.25
2018-07-26T05:38:28.603Z,9.20
2018-07-26T05:40:56.830Z,9.20
2018-07-26T05:43:25.204Z,8.10
2018-07-26T05:45:57.473Z,7.93
2018-07-26T05:48:25.762Z,6.87
2018-07-26T05:50:54.059Z,7.27
2018-07-26T05:53:22.258Z,6.33
2018-07-26T05:55:50.422Z,7.90
2018-07-26T05:58:18.756Z,7.28
2018-07-26T06:00:47.131Z,7.15
2018-07-26T06:03:15.362Z,7.27
2018-07-26T06:05:43.606Z,7.50
2018-07-26T06:08:11.707Z,7.27
2018-07-26T06:10:39.931Z,8.00
2018-07-26T06:13:08.262Z,6.33
2018-07-26T06:15:37.064Z,7.10
2018-07-26T06:18:05.675Z,6.70
2018-07-26T06:20:34.314Z,7.03
2018-07-26T06:23:02.592Z,7.35
2018-07-26T06:25:30.793Z,6.80
2018-07-26T06:27:59.010Z,7.40
2018-07-26T06:30:27.197Z,6.30
2018-07-26T06:32:55.456Z,7.00
2018-07-26T06:35:23.623Z,5.83
2018-07-26T06:37:51.859Z,6.00
2018-07-26T06:40:20.062Z,6.20
2018-07-26T06:42:48.520Z,5.00
2018-07-26T06:45:16.721Z,5.90
2018-07-26T06:47:44.947Z,6.40
2018-07-26T06:50:13.482Z,6.33
2018-07-26T06:52:42.145Z,5.90
2018-07-26T06:55:11.119Z,6.17
2018-07-26T06:57:39.297Z,5.50
2018-07-26T07:00:08.227Z,5.90
2018-07-26T07:02:36.417Z,5.20
2018-07-26T07:05:04.677Z,5.40
2018-07-26T07:07:32.861Z,5.90
2018-07-26T07:10:01.055Z,4.03
2018-07-26T07:12:29.263Z,5.17
2018-07-26T07:14:57.496Z,4.60
2018-07-26T07:17:25.715Z,4.28
2018-07-26T07:19:53.931Z,4.83
2018-07-26T07:22:22.152Z,5.10
2018-07-26T07:24:50.548Z,4.60
2018-07-26T07:27:18.834Z,4.80
2018-07-26T07:29:47.108Z,5.03
2018-07-26T07:32:15.481Z,4.80
2018-07-26T07:34:47.237Z,4.83
2018-07-26T07:37:15.495Z,5.00
2018-07-26T07:39:43.779Z,5.12
2018-07-26T07:42:12.040Z,4.63
2018-07-26T07:44:40.286Z,4.67
2018-07-26T07:47:08.492Z,5.40
2018-07-26T07:49:39.868Z,4.87
2018-07-26T07:52:08.030Z,4.43
2018-07-26T07:54:36.605Z,4.40
2018-07-26T07:57:05.000Z,4.40
2018-07-26T07:59:33.303Z,4.10
2018-07-26T08:02:01.515Z,3.87
2018-07-26T08:04:29.754Z,4.00
2018-07-26T08:06:57.963Z,4.03
2018-07-26T08:09:26.479Z,3.80
2018-07-26T08:11:54.766Z,3.80
2018-07-26T08:14:22.968Z,4.73
2018-07-26T08:16:51.199Z,6.30
2018-07-26T08:19:23.100Z,4.30
2018-07-26T08:21:51.655Z,4.53
2018-07-26T08:24:21.768Z,3.90
2018-07-26T08:26:50.303Z,3.45
2018-07-26T08:29:18.664Z,3.60
2018-07-26T08:31:46.805Z,3.50
2018-07-26T08:34:14.976Z,3.80
2018-07-26T08:36:43.170Z,3.17
2018-07-26T08:39:12.715Z,2.85
2018-07-26T08:41:41.584Z,2.70
2018-07-26T08:44:09.780Z,3.70
2018-07-26T08:46:37.996Z,3.00
2018-07-26T08:49:18.373Z,3.97
2018-07-26T08:51:46.629Z,3.43
2018-07-26T08:54:16.309Z,3.30
2018-07-26T08:56:44.518Z,3.60
2018-07-26T08:59:12.751Z,3.58
2018-07-26T09:01:41.067Z,4.05
2018-07-26T09:04:12.132Z,3.10
2018-07-26T09:06:40.323Z,3.30
2018-07-26T09:09:10.531Z,3.27
2018-07-26T09:11:38.783Z,2.80
2018-07-26T09:14:08.083Z,3.40
2018-07-26T09:16:36.523Z,2.72
2018-07-26T09:19:05.188Z,3.30
2018-07-26T09:21:33.464Z,3.60
2018-07-26T09:24:01.716Z,2.80
2018-07-26T09:26:29.977Z,3.37
2018-07-26T09:28:58.201Z,2.72
2018-07-26T09:31:26.396Z,2.97
2018-07-26T09:33:54.644Z,3.37
2018-07-26T09:36:23.531Z,2.83
2018-07-26T09:38:52.495Z,2.23
2018-07-26T09:41:20.707Z,2.80
2018-07-26T09:43:48.891Z,2.37
2018-07-26T09:46:16.900Z,2.55
